Time;durP1;ratioP1;P1;durP2;ratioP2;P2;SDS_P1;SDS_P2;PMS_P1;PMS_P2;Temp;Humidity;BMP_temperature;BMP_pressure;BME280_temperature;BME280_humidity;BME280_pressure;Samples;Min_cycle;Max_cycle;Signal;HPM_P1;HPM_P2
2022/11/05 00:09:38;;;;;;;;;;;6.80;99.90;;;;;;5090055;28;19931;-75
2022/11/05 00:17:35;;;;;;;;;;;6.80;99.90;;;;;;5096691;28;19920;-75
2022/11/05 00:20:04;;;;;;;;;;;6.70;99.90;;;;;;5083940;28;19928;-76
2022/11/05 00:25:20;;;;;;;;;;;6.70;99.90;;;;;;5030796;28;19925;-76
2022/11/05 00:27:48;;;;;;;;;;;6.70;99.90;;;;;;5083715;28;19981;-76
2022/11/05 00:30:17;;;;;;;;;;;6.70;99.90;;;;;;5085425;28;20363;-77
2022/11/05 00:32:44;;;;;;;;;;;6.60;99.90;;;;;;5083381;28;20577;-76
2022/11/05 00:35:12;;;;;;;;;;;6.60;99.90;;;;;;5082567;28;20023;-77
2022/11/05 00:37:38;;;;;;;;;;;6.50;99.90;;;;;;5096226;28;19985;-77
2022/11/05 00:40:06;;;;;;;;;;;6.50;99.90;;;;;;5087961;28;20433;-77
2022/11/05 00:45:17;;;;;;;;;;;6.30;99.90;;;;;;5084746;28;19930;-78
2022/11/05 00:50:29;;;;;;;;;;;6.30;99.90;;;;;;5091591;28;20151;-77
2022/11/05 00:52:58;;;;;;;;;;;6.30;99.90;;;;;;5090449;28;20066;-78
2022/11/05 00:55:27;;;;;;;;;;;6.30;99.90;;;;;;5097828;28;19936;-77
2022/11/05 00:57:53;;;;;;;;;;;6.20;99.90;;;;;;5091541;28;19936;-77
2022/11/05 01:00:20;;;;;;;;;;;6.50;99.90;;;;;;5090165;28;20673;-77
2022/11/05 01:02:47;;;;;;;;;;;6.20;99.90;;;;;;5094390;28;19950;-77
2022/11/05 01:05:14;;;;;;;;;;;6.10;99.90;;;;;;5091867;28;19977;-77
2022/11/05 01:07:42;;;;;;;;;;;6.10;99.90;;;;;;5085029;28;20001;-77
2022/11/05 01:10:08;;;;;;;;;;;6.10;99.90;;;;;;5087895;28;19928;-76
2022/11/05 01:12:36;;;;;;;;;;;6.20;99.90;;;;;;5082870;28;19932;-78
2022/11/05 01:15:02;;;;;;;;;;;6.20;99.90;;;;;;5087188;28;19942;-78
2022/11/05 01:17:29;;;;;;;;;;;6.20;99.90;;;;;;5089164;28;19932;-77
2022/11/05 01:19:56;;;;;;;;;;;6.20;99.90;;;;;;5087920;28;20285;-77
2022/11/05 01:22:23;;;;;;;;;;;6.20;99.90;;;;;;5088729;28;20377;-77
2022/11/05 01:24:51;;;;;;;;;;;6.20;99.90;;;;;;5097798;28;20026;-77
2022/11/05 01:27:17;;;;;;;;;;;6.00;99.90;;;;;;5092270;28;19959;-76
2022/11/05 01:29:44;;;;;;;;;;;6.00;99.90;;;;;;5091790;28;19932;-77
2022/11/05 01:32:11;;;;;;;;;;;6.00;99.90;;;;;;5097576;28;20023;-77
2022/11/05 01:34:37;;;;;;;;;;;5.50;99.90;;;;;;5087762;28;19962;-77
2022/11/05 01:37:04;;;;;;;;;;;6.10;99.90;;;;;;5089947;28;19932;-77
2022/11/05 01:39:31;;;;;;;;;;;6.10;99.90;;;;;;5089864;28;19931;-77
2022/11/05 01:41:59;;;;;;;;;;;6.10;99.90;;;;;;5087576;28;19997;-76
2022/11/05 01:44:45;;;;;;;;;;;6.20;99.90;;;;;;5088855;28;19928;-78
2022/11/05 01:47:20;;;;;;;;;;;6.20;99.90;;;;;;5093477;28;19928;-78
2022/11/05 01:49:46;;;;;;;;;;;6.10;99.90;;;;;;5085436;28;19978;-77
2022/11/05 01:52:13;;;;;;;;;;;6.10;99.90;;;;;;5079099;28;19950;-78
2022/11/05 01:54:41;;;;;;;;;;;6.10;99.90;;;;;;5081645;28;19947;-77
2022/11/05 01:57:09;;;;;;;;;;;6.00;99.90;;;;;;5100367;28;20089;-79
2022/11/05 01:59:37;;;;;;;;;;;6.00;99.90;;;;;;5098028;28;19928;-78
2022/11/05 02:02:06;;;;;;;;;;;6.00;99.90;;;;;;5084720;28;19974;-78
2022/11/05 02:04:37;;;;;;;;;;;6.00;99.90;;;;;;5095404;28;19924;-78
2022/11/05 02:07:05;;;;;;;;;;;6.00;99.90;;;;;;5082027;28;20168;-78
2022/11/05 02:09:34;;;;;;;;;;;6.00;99.90;;;;;;5081174;28;20403;-78
2022/11/05 02:12:01;;;;;;;;;;;6.00;99.90;;;;;;5085918;28;20351;-78
2022/11/05 02:14:29;;;;;;;;;;;6.00;99.90;;;;;;5088035;28;19928;-78
2022/11/05 02:16:59;;;;;;;;;;;6.00;99.90;;;;;;5087404;28;20359;-79
2022/11/05 02:19:44;;;;;;;;;;;6.10;99.90;;;;;;5089302;28;19933;-78
2022/11/05 02:22:19;;;;;;;;;;;6.00;99.90;;;;;;5093037;28;19931;-78
2022/11/05 02:25:04;;;;;;;;;;;6.00;99.90;;;;;;5085776;28;19932;-78
2022/11/05 02:27:43;;;;;;;;;;;6.00;99.90;;;;;;5088986;28;19935;-78
2022/11/05 02:30:24;;;;;;;;;;;6.00;99.90;;;;;;5093735;28;19985;-77
2022/11/05 02:33:02;;;;;;;;;;;7.80;99.90;;;;;;5087484;28;19968;-77
2022/11/05 02:35:35;;;;;;;;;;;5.90;99.90;;;;;;5086022;28;20309;-79
2022/11/05 02:38:06;;;;;;;;;;;5.80;99.90;;;;;;5099363;22;20010;-76
2022/11/05 02:40:36;;;;;;;;;;;5.90;99.90;;;;;;5083887;28;19985;-77
2022/11/05 02:43:05;;;;;;;;;;;5.80;99.90;;;;;;5069939;28;19971;-76
2022/11/05 02:45:40;;;;;;;;;;;5.80;99.90;;;;;;5060923;28;20308;-76
2022/11/05 02:48:10;;;;;;;;;;;5.80;99.90;;;;;;5058221;28;20009;-77
2022/11/05 02:50:39;;;;;;;;;;;5.80;99.90;;;;;;5056064;28;20038;-77
2022/11/05 02:53:09;;;;;;;;;;;5.70;99.90;;;;;;5070935;28;19939;-76
2022/11/05 02:55:38;;;;;;;;;;;5.70;99.90;;;;;;5050063;28;20019;-75
2022/11/05 02:58:05;;;;;;;;;;;5.70;99.90;;;;;;5059596;28;19982;-75
2022/11/05 03:00:47;;;;;;;;;;;5.70;99.90;;;;;;5079149;28;19927;-76
2022/11/05 03:03:16;;;;;;;;;;;5.80;99.90;;;;;;5051539;28;19929;-76
2022/11/05 03:05:49;;;;;;;;;;;5.80;99.90;;;;;;5055201;28;20122;-75
2022/11/05 03:08:19;;;;;;;;;;;5.90;99.90;;;;;;5066793;28;20355;-77
2022/11/05 03:10:48;;;;;;;;;;;6.10;99.90;;;;;;5069290;28;20418;-80
2022/11/05 03:13:19;;;;;;;;;;;7.80;99.90;;;;;;5077211;28;20323;-79
2022/11/05 03:15:55;;;;;;;;;;;6.30;99.90;;;;;;5060734;28;20488;-80
2022/11/05 03:18:25;;;;;;;;;;;6.40;99.90;;;;;;5052939;28;19933;-77
2022/11/05 03:20:57;;;;;;;;;;;6.40;99.90;;;;;;5070689;28;19933;-77
2022/11/05 03:23:26;;;;;;;;;;;6.50;99.90;;;;;;5058201;28;20005;-77
2022/11/05 03:25:56;;;;;;;;;;;6.50;99.90;;;;;;5053741;28;20375;-77
2022/11/05 03:28:24;;;;;;;;;;;6.40;99.90;;;;;;5049395;28;19931;-77
2022/11/05 03:30:53;;;;;;;;;;;6.40;99.90;;;;;;5062608;28;19933;-76
2022/11/05 03:33:22;;;;;;;;;;;6.40;99.90;;;;;;5067012;28;19929;-77
2022/11/05 03:35:52;;;;;;;;;;;6.30;99.90;;;;;;5066558;28;19951;-76
2022/11/05 03:38:20;;;;;;;;;;;6.20;99.90;;;;;;5067676;28;19954;-77
2022/11/05 03:40:49;;;;;;;;;;;6.20;99.90;;;;;;5066834;28;19928;-76
2022/11/05 03:43:18;;;;;;;;;;;6.10;99.90;;;;;;5068467;28;19932;-76
2022/11/05 03:45:47;;;;;;;;;;;6.10;99.90;;;;;;5059659;28;19924;-77
2022/11/05 03:48:16;;;;;;;;;;;6.10;99.90;;;;;;5056639;28;19935;-76
2022/11/05 03:50:48;;;;;;;;;;;6.10;99.90;;;;;;5060010;28;20331;-77
2022/11/05 03:53:16;;;;;;;;;;;5.90;99.90;;;;;;5070636;28;19977;-77
2022/11/05 03:55:48;;;;;;;;;;;6.00;99.90;;;;;;5057957;28;19932;-76
2022/11/05 03:58:15;;;;;;;;;;;6.00;99.90;;;;;;5073389;28;20441;-77
2022/11/05 04:00:42;;;;;;;;;;;6.00;99.90;;;;;;5084386;28;20437;-77
2022/11/05 04:03:09;;;;;;;;;;;5.90;99.90;;;;;;5050340;28;20285;-77
2022/11/05 04:05:37;;;;;;;;;;;5.90;99.90;;;;;;5051861;28;19924;-76
2022/11/05 04:13:34;;;;;;;;;;;5.80;99.90;;;;;;5077060;28;20360;-77
2022/11/05 04:18:45;;;;;;;;;;;5.60;99.90;;;;;;5057106;28;20007;-78
2022/11/05 04:24:11;;;;;;;;;;;5.50;99.90;;;;;;5068619;28;19928;-78
2022/11/05 04:26:39;;;;;;;;;;;5.50;99.90;;;;;;5057355;28;19931;-78
2022/11/05 04:31:50;;;;;;;;;;;5.50;99.90;;;;;;5056533;28;20507;-78
2022/11/05 04:34:20;;;;;;;;;;;5.50;99.90;;;;;;5055261;28;19959;-78
2022/11/05 04:36:49;;;;;;;;;;;5.50;99.90;;;;;;5066286;28;20055;-77
2022/11/05 04:39:16;;;;;;;;;;;5.50;99.90;;;;;;5056391;28;19925;-77
2022/11/05 04:41:44;;;;;;;;;;;5.60;99.90;;;;;;5062440;28;19963;-78
2022/11/05 04:44:11;;;;;;;;;;;5.60;99.90;;;;;;5077779;28;19933;-77
2022/11/05 04:46:38;;;;;;;50.60;25.47;;;5.60;99.90;;;;;;5058510;28;20067;-79
2022/11/05 04:49:05;;;;;;;51.93;25.30;;;5.60;99.90;;;;;;5059408;28;20308;-78
2022/11/05 04:51:32;;;;;;;55.03;25.27;;;5.60;99.90;;;;;;5061506;28;20206;-78
2022/11/05 04:54:01;;;;;;;44.37;24.73;;;5.60;99.90;;;;;;5073353;28;20234;-78
2022/11/05 04:56:28;;;;;;;49.17;24.00;;;5.60;99.90;;;;;;5063910;28;20214;-79
2022/11/05 04:58:55;;;;;;;53.60;24.67;;;5.60;99.90;;;;;;5066375;28;20329;-79
2022/11/05 05:01:23;;;;;;;55.53;27.07;;;5.60;99.90;;;;;;5096111;28;20210;-79
2022/11/05 05:03:52;;;;;;;56.80;26.93;;;5.60;99.90;;;;;;5078018;28;20250;-79
2022/11/05 05:06:19;;;;;;;;;;;5.60;99.90;;;;;;5068422;28;20210;-81
2022/11/05 05:08:47;;;;;;;;;;;5.60;99.90;;;;;;5082076;28;19935;-80
2022/11/05 05:11:17;;;;;;;;;;;5.60;99.90;;;;;;5094875;28;19949;-78
2022/11/05 05:13:50;;;;;;;;;;;5.60;99.90;;;;;;5095489;28;19964;-80
2022/11/05 05:16:19;;;;;;;;;;;5.60;99.90;;;;;;5088676;28;19925;-81
2022/11/05 05:18:47;;;;;;;;;;;5.60;99.90;;;;;;5063520;28;20126;-79
2022/11/05 05:23:59;;;;;;;59.63;28.00;;;5.70;99.90;;;;;;5069613;28;20067;-79
2022/11/05 05:26:28;;;;;;;53.37;26.00;;;5.70;99.90;;;;;;5055428;28;20602;-77
2022/11/05 05:28:56;;;;;;;49.07;25.63;;;5.60;99.90;;;;;;5052716;28;20313;-79
2022/11/05 05:31:23;;;;;;;52.80;25.17;;;7.10;99.90;;;;;;5070969;28;20192;-80
2022/11/05 05:33:53;;;;;;;55.03;25.40;;;5.60;99.90;;;;;;5053640;28;20632;-78
2022/11/05 05:36:21;;;;;;;53.70;26.60;;;5.60;99.90;;;;;;5060820;28;20224;-82
2022/11/05 05:38:49;;;;;;;56.27;24.57;;;5.60;99.90;;;;;;5056461;28;20298;-82
2022/11/05 05:41:16;;;;;;;58.40;27.70;;;5.60;99.90;;;;;;5069628;28;20210;-81
2022/11/05 05:43:45;;;;;;;53.23;25.63;;;6.30;99.90;;;;;;5074080;28;20227;-79
2022/11/05 05:46:14;;;;;;;59.27;25.97;;;5.60;99.90;;;;;;5051499;28;20275;-79
2022/11/05 05:48:42;;;;;;;51.63;24.00;;;5.60;99.90;;;;;;5054785;28;20650;-78
2022/11/05 05:51:12;;;;;;;53.73;24.83;;;5.60;99.90;;;;;;5070255;28;20206;-78
2022/11/05 05:53:39;;;;;;;49.80;23.37;;;7.00;99.90;;;;;;5072279;28;20257;-79
2022/11/05 05:56:07;;;;;;;52.87;23.47;;;5.50;99.90;;;;;;5049686;28;20230;-81
2022/11/05 05:58:36;;;;;;;49.57;23.33;;;5.50;99.90;;;;;;5055570;28;20235;-80
2022/11/05 06:01:07;;;;;;;51.23;23.90;;;5.50;99.90;;;;;;5068953;28;20202;-80
2022/11/05 06:03:34;;;;;;;60.87;27.17;;;5.50;99.90;;;;;;5055743;28;20221;-81
2022/11/05 06:06:03;;;;;;;;;;;5.50;99.90;;;;;;5072808;28;20106;-85
2022/11/05 06:08:31;;;;;;;;;;;5.50;99.90;;;;;;5065584;28;19923;-80
2022/11/05 06:10:58;;;;;;;;;;;5.40;99.90;;;;;;5057583;28;19926;-83
2022/11/05 06:13:25;;;;;;;;;;;5.50;99.90;;;;;;5076491;28;19924;-81
2022/11/05 06:15:52;;;;;;;;;;;5.50;99.90;;;;;;5056676;28;20398;-82
2022/11/05 06:18:20;;;;;;;;;;;5.50;99.90;;;;;;5078465;28;19943;-81
2022/11/05 06:20:47;;;;;;;;;;;5.40;99.90;;;;;;5075209;28;19920;-79
2022/11/05 06:23:14;;;;;;;;;;;5.30;99.90;;;;;;5072109;28;20070;-80
2022/11/05 06:25:41;;;;;;;;;;;5.40;99.90;;;;;;5071031;28;19943;-79
2022/11/05 06:28:08;;;;;;;;;;;5.40;99.90;;;;;;5050428;28;19929;-81
2022/11/05 06:30:35;;;;;;;;;;;5.40;99.90;;;;;;5055721;28;19923;-79
2022/11/05 06:33:05;;;;;;;;;;;5.40;99.90;;;;;;5052063;28;19924;-78
2022/11/05 06:35:33;;;;;;;;;;;5.40;99.90;;;;;;5056075;28;19935;-78
2022/11/05 06:38:00;;;;;;;;;;;5.40;99.90;;;;;;5063767;28;20331;-81
2022/11/05 06:40:28;;;;;;;;;;;5.40;99.90;;;;;;5082506;28;19928;-81
2022/11/05 06:42:55;;;;;;;;;;;5.40;99.90;;;;;;5060134;28;19928;-84
2022/11/05 06:45:22;;;;;;;;;;;5.40;99.90;;;;;;5060659;28;19966;-80
2022/11/05 06:47:54;;;;;;;;;;;5.50;99.90;;;;;;5075925;28;19932;-81
2022/11/05 06:50:21;;;;;;;;;;;5.50;99.90;;;;;;5071767;28;19924;-79
2022/11/05 06:52:54;;;;;;;;;;;5.60;99.90;;;;;;5055193;28;19924;-77
2022/11/05 06:55:21;;;;;;;;;;;5.60;99.90;;;;;;5055492;28;19927;-77
2022/11/05 06:57:48;;;;;;;;;;;5.70;99.90;;;;;;5072902;28;20503;-77
2022/11/05 07:00:16;;;;;;;;;;;5.70;99.90;;;;;;5063045;28;19935;-76
2022/11/05 07:02:44;;;;;;;;;;;5.80;99.90;;;;;;5055674;28;19935;-77
2022/11/05 07:05:11;;;;;;;;;;;5.80;99.90;;;;;;5072531;28;19951;-78
2022/11/05 07:07:38;;;;;;;;;;;5.90;99.90;;;;;;5051030;28;19990;-77
2022/11/05 07:10:08;;;;;;;;;;;5.90;99.90;;;;;;5072358;28;20384;-77
2022/11/05 07:12:35;;;;;;;;;;;6.00;99.90;;;;;;5056974;28;19924;-77
2022/11/05 07:15:02;;;;;;;;;;;6.20;99.90;;;;;;5071645;28;19919;-76
2022/11/05 07:17:29;;;;;;;;;;;6.30;99.90;;;;;;5059489;28;19963;-77
2022/11/05 07:19:56;;;;;;;;;;;6.40;99.90;;;;;;5079823;28;19999;-77
2022/11/05 07:22:23;;;;;;;;;;;5.40;99.90;;;;;;5067452;28;19928;-78
2022/11/05 07:24:50;;;;;;;55.37;25.60;;;6.80;99.90;;;;;;5050160;28;19981;-77
2022/11/05 07:27:19;;;;;;;46.80;24.07;;;7.00;99.90;;;;;;5057913;28;20230;-78
2022/11/05 07:29:46;;;;;;;38.00;21.40;;;7.20;99.90;;;;;;5061750;28;20968;-77
2022/11/05 07:32:13;;;;;;;;;;;7.50;99.90;;;;;;5057456;28;19939;-77
2022/11/05 07:34:40;;;;;;;;;;;7.70;99.90;;;;;;5051640;28;19982;-77
2022/11/05 07:37:07;;;;;;;;;;;7.90;99.90;;;;;;5069199;28;19931;-77
2022/11/05 07:39:34;;;;;;;;;;;8.10;99.90;;;;;;5061557;28;20299;-77
2022/11/05 07:42:01;;;;;;;;;;;8.30;99.90;;;;;;5059944;28;20030;-76
2022/11/05 07:44:34;;;;;;;;;;;8.60;99.90;;;;;;5072402;28;19999;-77
2022/11/05 07:47:01;;;;;;;;;;;8.60;99.90;;;;;;5060822;28;20020;-76
2022/11/05 07:49:28;;;;;;;;;;;8.90;99.90;;;;;;5053901;28;19924;-77
2022/11/05 07:51:55;;;;;;;;;;;9.00;99.90;;;;;;5072061;28;19920;-76
2022/11/05 07:54:25;;;;;;;;;;;9.30;99.90;;;;;;5071878;28;19981;-77
2022/11/05 07:56:52;;;;;;;;;;;9.30;99.90;;;;;;5071280;28;19931;-76
2022/11/05 07:59:19;;;;;;;;;;;9.50;99.90;;;;;;5057033;28;20338;-76
2022/11/05 08:01:47;;;;;;;;;;;11.10;99.90;;;;;;5063985;28;20031;-76
2022/11/05 08:04:14;;;;;;;;;;;9.90;99.90;;;;;;5065971;28;19931;-76
2022/11/05 08:06:41;;;;;;;;;;;10.10;99.90;;;;;;5063386;28;19920;-77
2022/11/05 08:09:08;;;;;;;;;;;10.20;99.90;;;;;;5047561;28;19940;-76
2022/11/05 08:11:36;;;;;;;;;;;10.30;99.90;;;;;;5054379;28;20004;-79
2022/11/05 08:14:03;;;;;;;;;;;10.30;99.90;;;;;;5075776;28;19970;-78
2022/11/05 08:16:30;;;;;;;;;;;10.40;99.90;;;;;;5062758;28;19928;-78
2022/11/05 08:18:59;;;;;;;;;;;10.50;99.90;;;;;;5049635;28;19985;-77
2022/11/05 08:21:25;;;;;;;;;;;10.50;99.90;;;;;;5070202;28;19936;-77
2022/11/05 08:23:52;;;;;;;;;;;10.50;99.90;;;;;;5070080;28;20396;-77
2022/11/05 08:26:19;;;;;;;;;;;10.60;99.90;;;;;;5053404;28;20414;-77
2022/11/05 08:28:46;;;;;;;;;;;10.60;99.90;;;;;;5050418;28;20388;-76
2022/11/05 08:31:14;;;;;;;;;;;10.70;99.90;;;;;;5055228;28;19940;-76
2022/11/05 08:33:41;;;;;;;;;;;10.70;99.90;;;;;;5057734;28;19968;-76
2022/11/05 08:36:09;;;;;;;;;;;10.80;99.90;;;;;;5061177;28;19928;-77
2022/11/05 08:38:36;;;;;;;;;;;10.80;99.90;;;;;;5081325;28;19924;-76
2022/11/05 08:41:04;;;;;;;;;;;10.80;99.90;;;;;;5053651;28;19920;-76
2022/11/05 08:43:31;;;;;;;;;;;10.70;99.90;;;;;;5056200;28;19978;-76
2022/11/05 08:45:59;;;;;;;;;;;10.60;99.90;;;;;;5060622;28;19974;-76
2022/11/05 08:48:26;;;;;;;;;;;10.50;99.90;;;;;;5058450;28;19946;-76
2022/11/05 08:50:54;;;;;;;;;;;10.40;99.90;;;;;;5070057;28;20007;-76
2022/11/05 08:53:23;;;;;;;;;;;10.30;99.90;;;;;;5052233;28;21367;-76
2022/11/05 08:55:50;;;;;;;;;;;10.20;99.90;;;;;;5056298;28;19928;-76
2022/11/05 08:58:18;;;;;;;;;;;10.20;99.90;;;;;;5073429;28;19924;-76
2022/11/05 09:00:49;;;;;;;;;;;10.20;99.90;;;;;;5077008;28;20308;-76
2022/11/05 09:03:16;;;;;;;;;;;10.20;99.90;;;;;;5069688;28;20381;-77
2022/11/05 09:05:43;;;;;;;;;;;10.20;99.90;;;;;;5054189;28;19994;-76
2022/11/05 09:08:11;;;;;;;;;;;10.30;99.90;;;;;;5062198;28;19924;-77
2022/11/05 09:10:40;;;;;;;;;;;10.40;99.90;;;;;;5075309;28;20405;-77
2022/11/05 09:13:07;;;;;;;;;;;10.50;99.90;;;;;;5059237;28;20317;-77
2022/11/05 09:15:34;;;;;;;;;;;10.50;99.90;;;;;;5075746;28;19989;-77
2022/11/05 09:18:01;;;;;;;;;;;10.50;99.90;;;;;;5081852;28;19924;-77
2022/11/05 09:20:28;;;;;;;;;;;10.60;99.90;;;;;;5059727;28;19936;-78
2022/11/05 09:22:55;;;;;;;;;;;10.70;99.90;;;;;;5071723;28;19924;-77
2022/11/05 09:25:22;;;;;;;;;;;10.80;99.90;;;;;;5057221;28;19927;-75
2022/11/05 09:27:50;;;;;;;;;;;10.90;99.90;;;;;;5061758;28;20387;-76
2022/11/05 09:30:17;;;;;;;;;;;10.90;99.90;;;;;;5053679;28;20616;-77
2022/11/05 09:32:44;;;;;;;;;;;11.00;99.90;;;;;;5053945;28;20360;-77
2022/11/05 09:35:11;;;;;;;;;;;11.10;99.90;;;;;;5084278;28;20402;-77
2022/11/05 09:37:38;;;;;;;;;;;11.20;99.90;;;;;;5085103;28;19931;-77
2022/11/05 09:40:06;;;;;;;;;;;11.30;99.90;;;;;;5057540;28;19997;-77
2022/11/05 09:42:36;;;;;;;;;;;11.40;99.90;;;;;;5073795;28;20225;-76
2022/11/05 09:45:08;;;;;;;;;;;11.50;99.90;;;;;;5056680;28;20026;-77
2022/11/05 09:47:36;;;;;;;;;;;11.60;99.90;;;;;;5069252;28;19924;-77
2022/11/05 09:50:06;;;;;;;;;;;11.70;99.90;;;;;;5059902;28;19995;-76
2022/11/05 09:52:33;;;;;;;;;;;11.90;99.90;;;;;;5055702;28;19924;-77
2022/11/05 09:55:02;;;;;;;;;;;11.90;99.90;;;;;;5076665;28;19947;-77
2022/11/05 09:57:30;;;;;;;;;;;12.10;99.90;;;;;;5080898;28;20004;-78
2022/11/05 09:59:58;;;;;;;;;;;12.10;99.90;;;;;;5072643;28;20395;-78
2022/11/05 10:02:28;;;;;;;;;;;12.20;99.90;;;;;;5058787;28;19982;-77
2022/11/05 10:04:56;;;;;;;;;;;12.30;99.90;;;;;;5056233;28;19931;-77
2022/11/05 10:07:24;;;;;;;;;;;12.50;99.90;;;;;;5051977;28;19920;-77
2022/11/05 10:09:53;;;;;;;;;;;12.60;99.90;;;;;;5080170;28;19920;-77
2022/11/05 10:12:22;;;;;;;;;;;12.70;99.90;;;;;;5052419;28;19932;-77
2022/11/05 10:14:51;;;;;;;;;;;12.90;99.90;;;;;;5076948;28;19978;-76
2022/11/05 10:17:23;;;;;;;;;;;12.90;99.90;;;;;;5057739;28;19932;-77
2022/11/05 10:19:53;;;;;;;;;;;13.10;99.90;;;;;;5076052;28;20034;-78
2022/11/05 10:22:20;;;;;;;;;;;13.10;99.90;;;;;;5069468;28;19978;-77
2022/11/05 10:24:48;;;;;;;;;;;13.20;99.90;;;;;;5051486;28;19921;-77
2022/11/05 10:27:17;;;;;;;;;;;13.20;99.90;;;;;;5053676;28;19924;-77
2022/11/05 10:29:44;;;;;;;;;;;13.20;99.90;;;;;;5052957;28;19978;-77
2022/11/05 10:32:14;;;;;;;;;;;13.00;99.90;;;;;;5064528;28;20018;-77
2022/11/05 10:34:42;;;;;;;;;;;12.90;99.90;;;;;;5052131;28;19935;-76
2022/11/05 10:37:10;;;;;;;;;;;12.90;99.90;;;;;;5047190;28;21200;-77
2022/11/05 10:39:37;;;;;;;;;;;13.10;99.90;;;;;;5049058;28;20021;-77
2022/11/05 10:42:10;;;;;;;;;;;13.20;99.90;;;;;;5065087;28;19928;-77
2022/11/05 10:44:41;;;;;;;;;;;13.30;99.90;;;;;;5050028;28;20599;-77
2022/11/05 10:47:14;;;;;;;;;;;13.30;99.90;;;;;;5046028;28;19932;-76
2022/11/05 10:49:46;;;;;;;;;;;14.00;99.90;;;;;;5066778;28;19936;-77
2022/11/05 10:52:21;;;;;;;;;;;13.20;99.90;;;;;;5049464;28;20326;-76
2022/11/05 10:58:11;;;;;;;;;;;13.40;99.90;;;;;;5054667;28;20026;-77
2022/11/05 11:00:38;;;;;;;;;;;13.70;99.90;;;;;;5068451;28;19989;-76
2022/11/05 11:03:26;;;;;;;11.20;5.63;;;14.10;99.90;;;;;;5075592;28;20925;-77
2022/11/05 11:05:59;;;;;;;;;;;14.10;99.90;;;;;;5042543;28;20514;-76
2022/11/05 11:08:27;;;;;;;;;;;14.30;99.90;;;;;;5062957;28;19950;-78
2022/11/05 11:10:56;;;;;;;;;;;14.40;99.90;;;;;;5072637;28;19920;-77
2022/11/05 11:13:24;;;;;;;;;;;14.50;99.90;;;;;;5070096;28;19932;-77
2022/11/05 11:15:51;;;;;;;;;;;13.90;99.90;;;;;;5049618;28;19925;-77
2022/11/05 11:18:28;;;;;;;;;;;14.70;99.90;;;;;;5067973;28;19928;-76
2022/11/05 11:21:04;;;;;;;;;;;14.90;99.90;;;;;;5048052;28;19928;-77
2022/11/05 11:23:37;;;;;;;;;;;15.10;99.90;;;;;;5073351;28;19931;-76
2022/11/05 11:26:04;;;;;;;;;;;15.30;99.90;;;;;;5052414;28;19944;-77
2022/11/05 11:28:32;;;;;;;;;;;15.30;99.90;;;;;;5061067;28;19924;-77
2022/11/05 11:31:03;;;;;;;;;;;15.20;99.90;;;;;;5058963;28;20618;-77
2022/11/05 11:33:31;;;;;;;;;;;15.10;99.90;;;;;;5041717;28;19928;-76
2022/11/05 11:35:58;;;;;;;;;;;15.10;99.90;;;;;;5055027;28;19935;-78
2022/11/05 11:38:25;;;;;;;;;;;15.00;99.90;;;;;;5057525;28;19921;-77
2022/11/05 11:41:00;;;;;;;;;;;14.40;99.90;;;;;;5048461;28;19929;-76
2022/11/05 11:43:29;;;;;;;;;;;15.00;99.90;;;;;;5053427;28;19987;-77
2022/11/05 11:45:56;;;;;;;;;;;15.00;99.90;;;;;;5058315;28;19925;-76
2022/11/05 11:48:24;;;;;;;;;;;15.00;99.90;;;;;;5056436;28;19928;-77
2022/11/05 11:50:51;;;;;;;;;;;14.90;99.90;;;;;;5057133;28;19924;-78
2022/11/05 11:53:26;;;;;;;;;;;15.00;99.90;;;;;;5038156;28;19932;-77
2022/11/05 11:56:02;;;;;;;;;;;15.10;99.90;;;;;;5056665;28;19924;-77
2022/11/05 11:58:36;;;;;;;;;;;15.00;99.90;;;;;;5059886;28;19928;-77
2022/11/05 12:01:07;;;;;;;;;;;15.00;99.90;;;;;;5042022;28;19928;-77
2022/11/05 12:03:35;;;;;;;;;;;15.00;99.90;;;;;;5064405;28;19924;-78
2022/11/05 12:06:04;;;;;;;;;;;15.00;99.90;;;;;;5063610;28;20413;-77
2022/11/05 12:08:41;;;;;;;;;;;15.00;99.90;;;;;;5058415;28;20022;-76
2022/11/05 12:11:11;;;;;;;;;;;14.90;99.90;;;;;;5048656;28;19978;-76
2022/11/05 12:13:52;;;;;;;;;;;15.00;99.90;;;;;;5045015;28;19920;-76
2022/11/05 12:16:24;;;;;;;;;;;15.10;99.90;;;;;;5064185;28;20406;-77
2022/11/05 12:18:57;;;;;;;;;;;15.10;99.90;;;;;;5055597;28;20093;-76
2022/11/05 12:21:28;;;;;;;;;;;15.00;99.90;;;;;;5051517;28;19931;-79
2022/11/05 12:24:22;;;;;;;;;;;15.00;99.90;;;;;;5062665;28;19994;-78
2022/11/05 12:26:55;;;;;;;;;;;15.00;99.90;;;;;;5013284;28;19924;-77
2022/11/05 12:29:43;;;;;;;;;;;15.00;99.90;;;;;;5076377;28;19924;-77
2022/11/05 12:32:31;;;;;;;;;;;15.00;99.90;;;;;;5071885;28;19930;-78
2022/11/05 12:35:08;;;;;;;;;;;14.90;99.90;;;;;;5048772;28;19924;-78
2022/11/05 12:38:05;;;;;;;;;;;14.90;99.90;;;;;;5070302;28;19927;-77
2022/11/05 12:40:41;;;;;;;;;;;14.90;99.90;;;;;;5059473;28;20313;-77
2022/11/05 12:43:16;;;;;;;;;;;14.80;99.90;;;;;;5068813;28;19942;-78
2022/11/05 12:45:47;;;;;;;;;;;14.90;99.90;;;;;;5073847;28;19920;-78
2022/11/05 12:48:31;;;;;;;;;;;14.80;99.90;;;;;;5068051;28;19924;-78
2022/11/05 12:51:02;;;;;;;;;;;14.70;99.90;;;;;;5088004;28;19924;-78
2022/11/05 12:53:47;;;;;;;;;;;14.70;99.90;;;;;;5082221;28;20264;-79
2022/11/05 12:56:18;;;;;;;;;;;14.70;99.90;;;;;;5077620;28;19921;-78
2022/11/05 12:58:52;;;;;;;;;;;14.70;99.90;;;;;;5083514;28;19921;-76
2022/11/05 13:01:22;;;;;;;;;;;14.70;99.90;;;;;;5075632;28;20403;-77
2022/11/05 13:03:52;;;;;;;;;;;14.50;99.90;;;;;;5058864;28;19924;-78
2022/11/05 13:06:22;;;;;;;;;;;14.50;99.90;;;;;;5066084;28;20378;-77
2022/11/05 13:08:52;;;;;;;;;;;14.40;99.90;;;;;;5078706;28;19920;-76
2022/11/05 13:11:21;;;;;;;;;;;14.40;99.90;;;;;;5084327;28;19973;-77
2022/11/05 13:13:53;;;;;;;;;;;14.30;99.90;;;;;;5064647;28;19975;-77
2022/11/05 13:16:23;;;;;;;;;;;14.30;99.90;;;;;;5058113;28;19928;-77
2022/11/05 13:18:52;;;;;;;;;;;14.30;99.90;;;;;;5059050;28;19947;-77
2022/11/05 13:21:22;;;;;;;;;;;14.20;99.90;;;;;;5074937;28;19924;-77
2022/11/05 13:23:52;;;;;;;;;;;14.10;99.90;;;;;;5069654;28;20356;-77
2022/11/05 13:26:23;;;;;;;;;;;14.00;99.90;;;;;;5080661;28;20048;-77
2022/11/05 13:28:54;;;;;;;;;;;14.00;99.90;;;;;;5069203;28;19931;-77
2022/11/05 13:31:23;;;;;;;;;;;13.90;99.90;;;;;;5065384;28;19924;-76
2022/11/05 13:33:52;;;;;;;;;;;14.10;99.90;;;;;;5071750;28;19928;-76
2022/11/05 13:39:15;;;;;;;;;;;14.20;99.90;;;;;;5061048;28;20379;-76
2022/11/05 13:42:04;;;;;;;;;;;14.10;99.90;;;;;;5065912;28;19920;-76
2022/11/05 13:44:43;;;;;;;;;;;13.90;99.90;;;;;;5061130;28;19924;-76
2022/11/05 13:47:30;;;;;;;;;;;13.90;99.90;;;;;;5075871;28;20019;-76
2022/11/05 13:50:25;;;;;;;;;;;13.80;99.90;;;;;;5064676;28;19927;-77
2022/11/05 13:53:08;;;;;;;;;;;13.60;99.90;;;;;;5037357;28;20388;-77
2022/11/05 13:55:48;;;;;;;;;;;13.60;99.90;;;;;;5056121;28;19959;-76
2022/11/05 13:58:39;;;;;;;;;;;13.60;99.90;;;;;;5061620;28;19978;-76
2022/11/05 14:01:18;;;;;;;;;;;13.60;99.90;;;;;;5022665;28;19924;-76
2022/11/05 14:03:46;;;;;;;;;;;13.50;99.90;;;;;;5075273;28;19931;-76
2022/11/05 14:06:14;;;;;;;;;;;13.50;99.90;;;;;;5060214;28;20655;-76
2022/11/05 14:08:44;;;;;;;;;;;13.60;99.90;;;;;;5070869;28;19930;-77
2022/11/05 14:11:19;;;;;;;;;;;13.50;99.90;;;;;;5067248;28;19931;-77
2022/11/05 14:13:51;;;;;;;;;;;13.50;99.90;;;;;;5074369;28;20264;-77
2022/11/05 14:16:21;;;;;;;;;;;13.50;99.90;;;;;;5073458;28;20671;-77
2022/11/05 14:18:52;;;;;;;;;;;13.50;99.90;;;;;;5074075;28;19920;-76
2022/11/05 14:21:30;;;;;;;;;;;13.40;99.90;;;;;;5065562;28;20405;-76
2022/11/05 14:23:59;;;;;;;;;;;13.40;99.90;;;;;;5058060;28;19936;-76
2022/11/05 14:26:32;;;;;;;;;;;13.20;99.90;;;;;;5062551;28;19920;-76
2022/11/05 14:29:26;;;;;;;;;;;13.20;99.90;;;;;;5066500;28;19963;-77
2022/11/05 14:31:57;;;;;;;;;;;13.20;99.90;;;;;;5064872;28;20379;-76
2022/11/05 14:34:39;;;;;;;;;;;13.10;99.90;;;;;;5046810;28;19924;-76
2022/11/05 14:37:25;;;;;;;;;;;13.00;99.90;;;;;;5063401;28;19924;-77
2022/11/05 14:39:55;;;;;;;;;;;12.90;99.90;;;;;;5070476;28;19995;-75
2022/11/05 14:42:26;;;;;;;;;;;12.80;99.90;;;;;;5064696;28;20275;-76
2022/11/05 14:45:01;;;;;;;;;;;12.80;99.90;;;;;;5065016;28;19961;-76
2022/11/05 14:47:31;;;;;;;;;;;12.80;99.90;;;;;;5052213;28;20291;-76
2022/11/05 14:50:03;;;;;;;;;;;12.80;99.90;;;;;;5063731;28;20269;-77
2022/11/05 14:52:50;;;;;;;;;;;12.80;99.90;;;;;;5046705;28;19925;-76
2022/11/05 14:55:25;;;;;;;;;;;12.80;99.90;;;;;;5044239;28;20299;-77
2022/11/05 14:58:25;;;;;;;;;;;12.80;99.90;;;;;;5072092;28;19921;-77
2022/11/05 15:00:54;;;;;;;;;;;12.70;99.90;;;;;;5078055;28;19924;-77
2022/11/05 15:03:30;;;;;;;;;;;12.70;99.90;;;;;;5074315;28;20277;-76
2022/11/05 15:06:04;;;;;;;;;;;12.70;99.90;;;;;;5054525;28;19960;-77
2022/11/05 15:08:35;;;;;;;;;;;12.70;99.90;;;;;;5064341;28;20676;-77
2022/11/05 15:11:22;;;;;;;;;;;12.60;99.90;;;;;;5069541;28;19951;-77
2022/11/05 15:13:57;;;;;;;;;;;12.60;99.90;;;;;;5075006;28;19924;-77
2022/11/05 15:16:26;;;;;;;;;;;12.60;99.90;;;;;;5053718;28;19924;-76